Time;durP1;ratioP1;P1;durP2;ratioP2;P2;SDS_P1;SDS_P2;PMS_P1;PMS_P2;Temp;Humidity;BMP_temperature;BMP_pressure;BME280_temperature;BME280_humidity;BME280_pressure;Samples;Min_cycle;Max_cycle;Signal;HPM_P1;HPM_P2
2021/11/03 00:00:34;;;;;;;25.35;16.52;;;10.50;68.70;;;;;;5044404;28;20038;-84
2021/11/03 00:03:04;;;;;;;23.55;15.68;;;10.50;68.70;;;;;;5047078;28;20038;-85
2021/11/03 00:05:31;;;;;;;22.92;16.67;;;10.50;68.70;;;;;;5046197;28;20026;-88
2021/11/03 00:07:57;;;;;;;27.60;17.20;;;10.50;68.80;;;;;;5046794;28;20029;-89
2021/11/03 00:10:24;;;;;;;26.85;17.25;;;10.50;68.80;;;;;;5048710;28;20064;-82
2021/11/03 00:12:50;;;;;;;29.23;17.48;;;10.50;68.90;;;;;;5059174;28;20037;-87
2021/11/03 00:15:16;;;;;;;29.35;18.42;;;10.40;68.80;;;;;;5047134;28;20043;-86
2021/11/03 00:17:43;;;;;;;24.23;17.10;;;10.50;68.90;;;;;;5052229;28;20032;-88
2021/11/03 00:20:11;;;;;;;25.88;16.98;;;10.50;68.90;;;;;;5042149;28;20025;-89
2021/11/03 00:22:37;;;;;;;27.60;17.05;;;10.50;69.00;;;;;;5040352;28;20037;-89
2021/11/03 00:25:06;;;;;;;23.98;16.58;;;10.50;69.00;;;;;;5039852;28;20033;-86
2021/11/03 00:27:32;;;;;;;24.40;16.02;;;10.50;69.00;;;;;;5039996;28;20057;-89
2021/11/03 00:29:58;;;;;;;22.88;15.55;;;10.50;69.10;;;;;;5039226;28;20067;-89
2021/11/03 00:32:24;;;;;;;24.48;15.93;;;10.50;69.10;;;;;;5039535;28;21186;-89
2021/11/03 00:34:50;;;;;;;23.88;16.40;;;10.50;69.10;;;;;;5028424;28;20116;-88
2021/11/03 00:37:16;;;;;;;23.92;15.40;;;10.50;69.20;;;;;;5037931;28;20107;-85
2021/11/03 00:39:43;;;;;;;25.55;16.05;;;10.50;69.20;;;;;;5037919;28;20040;-87
2021/11/03 00:42:09;;;;;;;22.17;15.45;;;10.50;69.30;;;;;;5037213;28;20544;-87
2021/11/03 00:44:36;;;;;;;30.27;16.38;;;10.50;69.30;;;;;;5036047;28;20376;-88
2021/11/03 00:47:03;;;;;;;24.20;16.38;;;10.50;69.30;;;;;;5040400;28;20025;-90
2021/11/03 00:49:29;;;;;;;23.95;15.50;;;10.50;69.30;;;;;;5036196;28;20040;-89
2021/11/03 00:51:55;;;;;;;21.27;14.88;;;10.50;69.30;;;;;;5020049;28;20115;-90
2021/11/03 00:54:23;;;;;;;24.80;16.38;;;10.50;69.40;;;;;;5038353;28;20033;-90
2021/11/03 00:56:49;;;;;;;24.52;16.15;;;10.50;69.40;;;;;;5038755;28;20029;-91
2021/11/03 00:59:16;;;;;;;24.58;15.77;;;10.50;69.40;;;;;;5042386;28;20045;-85
2021/11/03 01:01:44;;;;;;;25.25;15.85;;;10.50;69.40;;;;;;5042292;28;20048;-89
2021/11/03 01:04:11;;;;;;;24.77;15.57;;;10.50;69.50;;;;;;5077875;28;20055;-89
2021/11/03 01:06:38;;;;;;;24.02;16.25;;;10.50;69.50;;;;;;5045802;28;20152;-83
2021/11/03 01:09:05;;;;;;;25.42;16.98;;;10.50;69.50;;;;;;5048607;28;20491;-89
2021/11/03 01:11:31;;;;;;;24.38;15.85;;;10.50;69.60;;;;;;5051156;28;20056;-89
2021/11/03 01:13:58;;;;;;;25.73;17.42;;;10.50;69.60;;;;;;5036341;28;20146;-80
2021/11/03 01:16:24;;;;;;;25.13;16.58;;;10.50;69.70;;;;;;5060148;28;20029;-91
2021/11/03 01:18:53;;;;;;;22.50;16.08;;;10.50;69.70;;;;;;5023796;28;20396;-88
2021/11/03 01:21:20;;;;;;;22.92;15.65;;;10.50;69.70;;;;;;5043614;28;20057;-90
2021/11/03 01:23:46;;;;;;;23.23;14.48;;;10.50;69.70;;;;;;5037117;28;20024;-80
2021/11/03 01:26:12;;;;;;;24.63;15.48;;;10.50;69.70;;;;;;5057840;28;20526;-93
2021/11/03 01:28:38;;;;;;;20.20;13.75;;;10.50;69.70;;;;;;5040356;28;20402;-90
2021/11/03 01:31:04;;;;;;;21.88;14.60;;;10.50;69.70;;;;;;5074743;28;20403;-89
2021/11/03 01:33:30;;;;;;;21.75;14.43;;;10.50;69.90;;;;;;5042189;28;20125;-89
2021/11/03 01:35:57;;;;;;;20.83;14.10;;;10.50;69.90;;;;;;5043299;28;20057;-85
2021/11/03 01:38:24;;;;;;;19.85;14.13;;;10.50;69.90;;;;;;5046388;28;20037;-93
2021/11/03 01:40:51;;;;;;;23.08;14.88;;;10.50;69.90;;;;;;5041296;28;20034;-92
2021/11/03 01:43:32;;;;;;;21.10;14.32;;;10.60;69.90;;;;;;5042884;28;20076;-84
2021/11/03 01:46:23;;;;;;;19.90;13.93;;;10.50;70.00;;;;;;5041669;28;20021;-90
2021/11/03 01:49:04;;;;;;;22.77;15.43;;;10.50;69.90;;;;;;5075675;28;20036;-90
2021/11/03 01:51:39;;;;;;;22.00;13.90;;;10.60;70.10;;;;;;5045867;28;20044;-90
2021/11/03 01:54:10;;;;;;;21.45;14.25;;;10.50;70.00;;;;;;5045147;28;20476;-87
2021/11/03 01:56:36;;;;;;;20.90;15.10;;;10.50;70.10;;;;;;5040910;28;20392;-86
2021/11/03 01:59:27;;;;;;;20.77;14.45;;;10.50;70.20;;;;;;5028889;28;20040;-91
2021/11/03 02:01:54;;;;;;;20.80;14.07;;;10.50;70.20;;;;;;5034928;28;20033;-89
2021/11/03 02:04:21;;;;;;;20.63;14.48;;;10.50;70.30;;;;;;5037868;28;20033;-91
2021/11/03 02:06:48;;;;;;;21.75;14.13;;;10.50;70.20;;;;;;5035784;28;20021;-91
2021/11/03 02:09:15;;;;;;;21.30;14.38;;;10.50;70.30;;;;;;5036606;28;20053;-93
2021/11/03 02:11:41;;;;;;;20.30;13.70;;;10.50;70.30;;;;;;5035178;28;20043;-86
2021/11/03 02:14:08;;;;;;;18.73;13.18;;;10.50;70.30;;;;;;5037173;28;20039;-89
2021/11/03 02:16:38;;;;;;;23.42;14.95;;;10.50;70.30;;;;;;5021398;28;20490;-92
2021/11/03 02:19:12;;;;;;;22.48;14.48;;;10.50;70.30;;;;;;5037968;28;20048;-91
2021/11/03 02:21:50;;;;;;;22.55;14.98;;;10.60;70.40;;;;;;5035951;28;20114;-83
2021/11/03 02:24:26;;;;;;;20.58;14.68;;;10.50;70.40;;;;;;5025319;28;20033;-86
2021/11/03 02:26:53;;;;;;;21.92;14.70;;;10.60;70.40;;;;;;5036940;28;20033;-92
2021/11/03 02:29:22;;;;;;;26.17;16.33;;;10.50;70.50;;;;;;5036113;28;20136;-88
2021/11/03 02:31:55;;;;;;;24.58;16.02;;;10.50;70.50;;;;;;5035955;28;20059;-89
2021/11/03 02:34:28;;;;;;;25.38;16.55;;;10.60;70.60;;;;;;5023773;28;20037;-83
2021/11/03 02:36:58;;;;;;;23.73;15.55;;;10.60;70.50;;;;;;5085390;28;20029;-92
2021/11/03 02:39:35;;;;;;;21.88;15.68;;;10.50;70.50;;;;;;5040903;28;20034;-86
2021/11/03 02:42:02;;;;;;;24.80;16.02;;;10.50;70.60;;;;;;5035656;28;20048;-87
2021/11/03 02:44:30;;;;;;;23.40;15.48;;;10.60;70.60;;;;;;5035178;28;20072;-89
2021/11/03 02:46:56;;;;;;;24.52;16.30;;;10.50;70.60;;;;;;5038993;28;20025;-92
2021/11/03 02:49:22;;;;;;;23.27;15.18;;;10.60;70.60;;;;;;5023594;28;20029;-89
2021/11/03 02:51:49;;;;;;;25.65;15.50;;;10.60;70.60;;;;;;5018748;28;20392;-90
2021/11/03 02:54:20;;;;;;;23.98;15.98;;;10.60;70.60;;;;;;5035818;28;20529;-91
2021/11/03 02:56:53;;;;;;;24.88;14.00;;;10.50;70.50;;;;;;5041367;28;20024;-90
2021/11/03 02:59:21;;;;;;;22.33;15.18;;;10.60;70.70;;;;;;5039741;28;20036;-91
2021/11/03 03:02:09;;;;;;;21.88;14.23;;;10.60;70.70;;;;;;5036893;28;20129;-91
2021/11/03 03:04:42;;;;;;;23.88;14.88;;;10.60;70.80;;;;;;5069170;28;20044;-90
2021/11/03 03:07:10;;;;;;;23.75;14.63;;;10.60;70.80;;;;;;5036808;28;20029;-91
2021/11/03 03:09:36;;;;;;;24.27;15.70;;;10.60;70.80;;;;;;5033513;28;20025;-90
2021/11/03 03:12:06;;;;;;;26.63;15.25;;;10.60;71.00;;;;;;5034341;28;20032;-91
2021/11/03 03:14:39;;;;;;;25.58;15.23;;;10.60;71.00;;;;;;5023110;28;20036;-92
2021/11/03 03:17:09;;;;;;;22.55;14.85;;;10.60;71.00;;;;;;5020776;28;20029;-91
2021/11/03 03:19:36;;;;;;;23.05;14.65;;;10.60;71.00;;;;;;5033412;28;20064;-89
2021/11/03 03:22:03;;;;;;;24.05;15.75;;;10.60;71.00;;;;;;5034897;28;20056;-90
2021/11/03 03:24:29;;;;;;;25.02;15.50;;;10.60;71.00;;;;;;5018929;28;20488;-91
2021/11/03 03:26:55;;;;;;;27.23;15.65;;;10.60;71.00;;;;;;5030991;28;20059;-89
2021/11/03 03:29:22;;;;;;;26.08;15.98;;;10.60;71.00;;;;;;5032745;28;20033;-87
2021/11/03 03:31:51;;;;;;;23.05;15.48;;;10.60;71.10;;;;;;5018944;28;20029;-90
2021/11/03 03:34:21;;;;;;;23.35;15.70;;;10.60;71.10;;;;;;5036377;28;20920;-85
2021/11/03 03:36:49;;;;;;;24.00;15.70;;;10.60;71.20;;;;;;5040065;28;20082;-88
2021/11/03 03:39:18;;;;;;;25.30;16.42;;;10.60;71.20;;;;;;5022601;28;20036;-88
2021/11/03 03:41:50;;;;;;;25.73;16.02;;;10.60;71.20;;;;;;5040837;28;20577;-91
2021/11/03 03:44:16;;;;;;;26.95;16.23;;;10.60;71.20;;;;;;5044448;28;20098;-91
2021/11/03 03:46:43;;;;;;;24.17;15.93;;;10.60;71.30;;;;;;5042454;28;20036;-87
2021/11/03 03:49:09;;;;;;;25.67;16.00;;;10.60;71.30;;;;;;5043710;28;20376;-90
2021/11/03 03:51:35;;;;;;;24.85;16.17;;;10.50;71.40;;;;;;5037969;28;20400;-90
2021/11/03 03:54:01;;;;;;;26.88;15.93;;;10.60;71.40;;;;;;5037664;28;20037;-90
2021/11/03 03:56:27;;;;;;;25.95;15.38;;;10.60;71.40;;;;;;5064524;28;20029;-91
2021/11/03 03:58:55;;;;;;;24.50;16.50;;;10.60;71.40;;;;;;5035217;28;20041;-92
2021/11/03 04:01:24;;;;;;;28.98;16.42;;;10.60;71.40;;;;;;5038446;28;20051;-89
2021/11/03 04:03:51;;;;;;;25.42;16.33;;;10.60;71.40;;;;;;5041837;28;20424;-87
2021/11/03 04:06:17;;;;;;;24.67;15.57;;;10.60;71.40;;;;;;5036769;28;20052;-86
2021/11/03 04:08:44;;;;;;;23.73;15.30;;;10.70;71.50;;;;;;5038845;28;20029;-89
2021/11/03 04:11:11;;;;;;;26.40;16.83;;;10.70;71.40;;;;;;5038044;28;20029;-87
2021/11/03 04:13:39;;;;;;;26.17;16.58;;;10.70;71.40;;;;;;5037641;28;20079;-82
2021/11/03 04:16:06;;;;;;;25.98;16.13;;;10.70;71.50;;;;;;5037548;28;20396;-90
2021/11/03 04:18:33;;;;;;;26.88;16.95;;;10.60;71.40;;;;;;5037040;28;20129;-89
2021/11/03 04:20:59;;;;;;;27.48;17.38;;;10.70;71.40;;;;;;5036761;28;20064;-88
2021/11/03 04:23:25;;;;;;;28.73;17.60;;;10.70;71.50;;;;;;5023744;28;20379;-87
2021/11/03 04:25:52;;;;;;;27.98;17.10;;;10.70;71.40;;;;;;5040677;28;20031;-88
2021/11/03 04:28:19;;;;;;;27.40;16.80;;;10.70;71.40;;;;;;5036588;28;20748;-87
2021/11/03 04:30:46;;;;;;;28.05;17.70;;;10.70;71.40;;;;;;5035040;28;20037;-85
2021/11/03 04:33:14;;;;;;;27.13;16.85;;;10.70;71.40;;;;;;5036185;28;20041;-87
2021/11/03 04:35:41;;;;;;;27.58;17.13;;;10.70;71.50;;;;;;5020938;28;20060;-89
2021/11/03 04:38:08;;;;;;;27.75;17.23;;;10.70;71.60;;;;;;5030511;28;20519;-86
2021/11/03 04:40:34;;;;;;;28.20;18.17;;;10.70;71.50;;;;;;5037602;28;20036;-83
2021/11/03 04:43:02;;;;;;;26.55;17.17;;;10.70;71.50;;;;;;5038271;28;20139;-82
2021/11/03 04:45:28;;;;;;;26.23;16.90;;;10.70;71.60;;;;;;5046709;28;20041;-81
2021/11/03 04:47:55;;;;;;;25.33;16.65;;;10.70;71.60;;;;;;5048472;28;20060;-85
2021/11/03 04:50:28;;;;;;;26.33;16.42;;;10.70;71.60;;;;;;5040991;28;20074;-87
2021/11/03 04:52:55;;;;;;;27.15;16.60;;;10.70;71.60;;;;;;5037729;28;20030;-87
2021/11/03 04:55:21;;;;;;;28.60;17.10;;;10.70;71.70;;;;;;5037470;28;20033;-83
2021/11/03 04:57:48;;;;;;;29.45;17.48;;;10.70;71.70;;;;;;5037709;28;20033;-85
2021/11/03 05:00:19;;;;;;;27.85;17.10;;;10.70;71.70;;;;;;5045547;28;20025;-86
2021/11/03 05:02:45;;;;;;;25.35;15.80;;;10.70;72.30;;;;;;5042268;28;20083;-82
2021/11/03 05:05:12;;;;;;;25.20;16.00;;;10.70;71.70;;;;;;5037524;28;20476;-86
2021/11/03 05:07:38;;;;;;;23.35;15.20;;;10.70;71.70;;;;;;5036205;28;20781;-82
2021/11/03 05:10:04;;;;;;;25.05;15.98;;;10.70;71.80;;;;;;5068433;28;20040;-86
2021/11/03 05:12:30;;;;;;;28.60;16.15;;;10.70;71.80;;;;;;5035557;28;20026;-85
2021/11/03 05:14:56;;;;;;;21.73;14.13;;;10.70;71.80;;;;;;5037249;28;20055;-87
2021/11/03 05:17:22;;;;;;;28.80;15.90;;;10.70;71.80;;;;;;5020143;28;20064;-84
2021/11/03 05:19:51;;;;;;;26.42;16.35;;;10.70;71.80;;;;;;5035646;28;20029;-85
2021/11/03 05:22:25;;;;;;;26.67;16.30;;;10.70;71.80;;;;;;5035353;28;20057;-85
2021/11/03 05:24:52;;;;;;;25.67;15.75;;;10.70;71.90;;;;;;5036359;28;20045;-87
2021/11/03 05:27:18;;;;;;;26.63;15.38;;;10.70;71.90;;;;;;5037469;28;20140;-83
2021/11/03 05:29:44;;;;;;;24.98;14.88;;;10.70;71.90;;;;;;5020007;28;20033;-88
2021/11/03 05:32:10;;;;;;;27.60;16.85;;;10.70;71.90;;;;;;5037261;28;20044;-86
2021/11/03 05:34:36;;;;;;;27.00;16.10;;;10.70;71.90;;;;;;5036702;28;20037;-86
2021/11/03 05:37:04;;;;;;;27.55;16.23;;;10.70;71.90;;;;;;5036953;28;20033;-85
2021/11/03 05:39:31;;;;;;;27.73;16.13;;;10.70;71.90;;;;;;5036099;28;20116;-86
2021/11/03 05:41:57;;;;;;;30.05;16.95;;;10.70;71.90;;;;;;5025897;28;20492;-87
2021/11/03 05:44:23;;;;;;;25.80;16.52;;;10.80;72.00;;;;;;5038040;28;20127;-86
2021/11/03 05:46:53;;;;;;;26.15;15.18;;;10.80;72.10;;;;;;5037147;28;20033;-87
2021/11/03 05:49:22;;;;;;;25.55;15.88;;;10.80;72.40;;;;;;5036097;28;20444;-88
2021/11/03 05:51:48;;;;;;;26.55;15.07;;;10.80;72.60;;;;;;5023750;28;20031;-85
2021/11/03 05:54:17;;;;;;;28.42;16.15;;;10.90;73.10;;;;;;5038186;28;20040;-87
2021/11/03 05:56:46;;;;;;;29.88;15.60;;;10.90;73.60;;;;;;5037954;28;20033;-88
2021/11/03 05:59:13;;;;;;;26.90;15.93;;;10.90;74.20;;;;;;5039855;28;20112;-89
2021/11/03 06:01:39;;;;;;;24.33;15.02;;;10.90;75.50;;;;;;5034831;28;20442;-85
2021/11/03 06:04:04;;;;;;;26.25;16.35;;;11.00;76.00;;;;;;5035704;28;20037;-87
2021/11/03 06:06:31;;;;;;;25.77;14.38;;;11.00;76.10;;;;;;5036582;28;20040;-83
2021/11/03 06:08:57;;;;;;;27.67;15.00;;;11.10;76.00;;;;;;5037906;28;20032;-88
2021/11/03 06:11:24;;;;;;;31.25;16.42;;;11.10;75.80;;;;;;5042067;28;20361;-85
2021/11/03 06:13:52;;;;;;;22.88;14.82;;;11.20;75.70;;;;;;5036115;28;20038;-86
2021/11/03 06:16:18;;;;;;;27.52;16.02;;;11.20;75.90;;;;;;5036480;28;20049;-84
2021/11/03 06:18:44;;;;;;;25.85;15.77;;;11.20;75.90;;;;;;5035736;28;20190;-87
2021/11/03 06:21:11;;;;;;;24.17;14.73;;;11.30;75.80;;;;;;5036027;28;20033;-86
2021/11/03 06:23:38;;;;;;;30.23;16.65;;;11.30;75.70;;;;;;5035706;28;20045;-86
2021/11/03 06:26:04;;;;;;;29.35;16.25;;;11.30;75.50;;;;;;5036822;28;20103;-86
2021/11/03 06:28:30;;;;;;;26.92;16.48;;;11.40;75.50;;;;;;5037013;28;20032;-88
2021/11/03 06:30:56;;;;;;;23.92;15.27;;;11.40;75.40;;;;;;5035177;28;20040;-88
2021/11/03 06:33:23;;;;;;;29.10;16.13;;;11.40;75.20;;;;;;5035949;28;20508;-86
2021/11/03 06:35:51;;;;;;;28.38;16.55;;;11.40;75.30;;;;;;5036317;28;20042;-86
2021/11/03 06:38:17;;;;;;;26.23;15.88;;;11.50;75.90;;;;;;5035846;28;20043;-87
2021/11/03 06:40:44;;;;;;;28.75;15.55;;;11.50;75.30;;;;;;5036099;28;20357;-87
2021/11/03 06:43:11;;;;;;;21.77;13.55;;;11.60;75.30;;;;;;5036223;28;20100;-88
2021/11/03 06:45:38;;;;;;;24.42;14.98;;;11.50;75.00;;;;;;5036195;28;20033;-88
2021/11/03 06:48:04;;;;;;;26.40;14.70;;;11.60;74.70;;;;;;5036173;28;20119;-88
2021/11/03 06:50:35;;;;;;;28.45;16.17;;;11.60;74.80;;;;;;5036246;28;20037;-90
2021/11/03 06:53:03;;;;;;;28.15;16.02;;;11.60;75.00;;;;;;5035575;28;20025;-86
2021/11/03 06:55:30;;;;;;;24.80;14.75;;;11.70;75.00;;;;;;5040043;28;20032;-86
2021/11/03 06:57:56;;;;;;;27.85;15.30;;;11.70;74.80;;;;;;5035489;28;20027;-86
2021/11/03 07:00:27;;;;;;;26.42;16.23;;;11.70;74.70;;;;;;5037618;28;20033;-84
2021/11/03 07:02:54;;;;;;;29.30;17.00;;;11.70;75.40;;;;;;5027028;28;20984;-88
2021/11/03 07:05:21;;;;;;;29.70;16.67;;;11.70;75.00;;;;;;5037943;28;20060;-86
2021/11/03 07:07:47;;;;;;;26.77;16.75;;;11.70;75.00;;;;;;5047662;28;20083;-86
2021/11/03 07:10:20;;;;;;;27.17;15.90;;;11.80;74.80;;;;;;5045722;28;20418;-86
2021/11/03 07:12:46;;;;;;;25.15;15.75;;;11.80;75.00;;;;;;5027842;28;20451;-84
2021/11/03 07:15:12;;;;;;;28.33;17.67;;;11.80;75.10;;;;;;5052216;28;20037;-87
2021/11/03 07:17:38;;;;;;;26.67;15.48;;;11.90;75.00;;;;;;5043254;28;20033;-86
2021/11/03 07:20:05;;;;;;;28.27;16.50;;;11.90;74.70;;;;;;5036080;28;20102;-85
2021/11/03 07:22:30;;;;;;;25.70;15.60;;;11.90;74.70;;;;;;5056507;28;20052;-88
2021/11/03 07:24:56;;;;;;;27.33;17.45;;;11.90;74.80;;;;;;5056710;28;20040;-87
2021/11/03 07:27:22;;;;;;;26.95;16.90;;;11.90;74.60;;;;;;5045237;28;20064;-87
2021/11/03 07:29:49;;;;;;;28.17;16.50;;;11.90;74.70;;;;;;5038151;28;20060;-88
2021/11/03 07:32:16;;;;;;;28.23;15.45;;;11.90;74.50;;;;;;5031750;28;20020;-85
2021/11/03 07:34:42;;;;;;;26.10;15.55;;;12.00;74.20;;;;;;5054496;28;20176;-84
2021/11/03 07:37:08;;;;;;;28.83;17.13;;;12.00;74.10;;;;;;5042479;28;20124;-85
2021/11/03 07:39:34;;;;;;;25.55;15.40;;;12.00;74.20;;;;;;5037808;28;20033;-84
2021/11/03 07:42:01;;;;;;;25.63;15.65;;;12.00;74.10;;;;;;5046046;28;20041;-85
2021/11/03 07:44:32;;;;;;;27.67;17.77;;;12.00;74.20;;;;;;5053891;28;20048;-85
2021/11/03 07:46:58;;;;;;;26.20;15.85;;;12.00;74.20;;;;;;5043759;28;20025;-84
2021/11/03 07:49:24;;;;;;;28.70;16.23;;;12.00;74.00;;;;;;5035812;28;20037;-85
2021/11/03 07:51:50;;;;;;;31.80;17.58;;;12.00;74.00;;;;;;5037888;28;20026;-85
2021/11/03 07:54:16;;;;;;;27.05;16.92;;;12.10;74.00;;;;;;5053604;28;20029;-85
2021/11/03 07:56:43;;;;;;;31.90;16.92;;;12.10;73.90;;;;;;5038923;28;20417;-84
2021/11/03 07:59:10;;;;;;;27.08;15.75;;;12.10;73.90;;;;;;5037872;28;20071;-86
2021/11/03 08:01:37;;;;;;;26.52;16.58;;;12.10;73.80;;;;;;5038880;28;20534;-85
2021/11/03 08:04:03;;;;;;;26.35;15.98;;;12.10;74.00;;;;;;5036918;28;20116;-83
2021/11/03 08:06:29;;;;;;;28.63;17.60;;;12.20;74.00;;;;;;5038229;28;20147;-84
2021/11/03 08:09:07;;;;;;;27.58;17.38;;;12.20;73.90;;;;;;5039302;28;20132;-84
2021/11/03 08:11:54;;;;;;;30.27;17.02;;;12.20;73.80;;;;;;5039037;28;20132;-84
2021/11/03 08:14:23;;;;;;;29.70;16.65;;;12.20;73.50;;;;;;5038254;28;20033;-84
2021/11/03 08:17:10;;;;;;;27.55;15.73;;;12.20;73.60;;;;;;5042714;28;20029;-80
2021/11/03 08:19:44;;;;;;;26.13;15.63;;;12.20;73.80;;;;;;5038079;28;20459;-83
2021/11/03 08:22:11;;;;;;;28.58;16.95;;;12.20;73.60;;;;;;5038950;28;20045;-83
2021/11/03 08:24:38;;;;;;;29.95;18.42;;;12.20;73.70;;;;;;5039830;28;20045;-83
2021/11/03 08:27:05;;;;;;;27.83;16.55;;;12.30;73.70;;;;;;5041339;28;20121;-82
2021/11/03 08:29:33;;;;;;;28.45;17.98;;;12.30;73.70;;;;;;5038682;28;20089;-84
2021/11/03 08:31:59;;;;;;;28.50;17.50;;;12.30;73.50;;;;;;5037938;28;20037;-83
2021/11/03 08:34:29;;;;;;;28.83;17.33;;;12.30;73.40;;;;;;5045777;28;20415;-83
2021/11/03 08:36:59;;;;;;;26.02;16.48;;;12.30;73.50;;;;;;5045943;28;20034;-82
2021/11/03 08:39:27;;;;;;;27.52;17.98;;;12.30;73.60;;;;;;5036719;28;20110;-83
2021/11/03 08:41:53;;;;;;;37.53;19.65;;;12.30;73.60;;;;;;5037822;28;20033;-86
2021/11/03 08:44:18;;;;;;;30.95;17.00;;;12.30;73.60;;;;;;5038724;28;20112;-84
2021/11/03 08:46:44;;;;;;;29.63;17.42;;;12.40;73.50;;;;;;5039056;28;20039;-85
2021/11/03 08:49:10;;;;;;;30.90;17.88;;;12.40;73.60;;;;;;5040394;28;20030;-85
2021/11/03 08:51:36;;;;;;;31.75;16.75;;;12.40;73.50;;;;;;5037671;28;20082;-85
2021/11/03 08:54:05;;;;;;;30.80;17.95;;;12.40;73.60;;;;;;5037496;28;20036;-85
2021/11/03 08:56:31;;;;;;;29.15;17.77;;;12.40;73.50;;;;;;5037525;28;20073;-85
2021/11/03 08:58:57;;;;;;;27.20;15.77;;;12.40;73.60;;;;;;5036334;28;20038;-85
2021/11/03 09:01:23;;;;;;;27.73;17.50;;;12.40;73.50;;;;;;5037407;28;20037;-84
2021/11/03 09:03:50;;;;;;;27.02;18.15;;;12.40;73.50;;;;;;5037563;28;20033;-85
2021/11/03 09:06:17;;;;;;;30.50;16.88;;;12.50;73.40;;;;;;5038179;28;20040;-86
2021/11/03 09:08:47;;;;;;;27.58;16.40;;;12.50;73.30;;;;;;5038072;28;20082;-83
2021/11/03 09:11:13;;;;;;;26.27;15.63;;;12.50;73.20;;;;;;5037733;28;20270;-85
2021/11/03 09:13:39;;;;;;;22.10;14.45;;;12.50;73.20;;;;;;5038016;28;20032;-83
2021/11/03 09:16:06;;;;;;;32.03;18.50;;;12.50;73.20;;;;;;5040594;28;20040;-83
2021/11/03 09:18:33;;;;;;;26.65;17.88;;;12.50;73.30;;;;;;5036987;28;20038;-83
2021/11/03 09:21:00;;;;;;;25.85;15.43;;;12.50;73.20;;;;;;5037373;28;20037;-81
2021/11/03 09:23:26;;;;;;;25.48;16.95;;;12.50;73.00;;;;;;5038605;28;20087;-84
2021/11/03 09:25:53;;;;;;;25.30;15.90;;;12.50;73.00;;;;;;5036653;28;20087;-84
2021/11/03 09:28:25;;;;;;;25.80;16.52;;;12.60;73.00;;;;;;5035932;28;20033;-81
2021/11/03 09:30:53;;;;;;;26.33;17.00;;;12.60;73.10;;;;;;5025159;28;20037;-85
2021/11/03 09:33:19;;;;;;;24.13;16.15;;;12.60;73.00;;;;;;5035667;28;21443;-83
2021/11/03 09:35:48;;;;;;;28.67;16.83;;;12.60;73.00;;;;;;5038704;28;20037;-85
2021/11/03 09:38:18;;;;;;;24.50;15.68;;;12.60;72.80;;;;;;5024047;28;20087;-85
2021/11/03 09:40:49;;;;;;;25.77;15.85;;;12.60;72.70;;;;;;5036947;28;20028;-85
2021/11/03 09:43:57;;;;;;;22.70;15.25;;;12.60;72.60;;;;;;5038732;28;20048;-85
2021/11/03 09:46:28;;;;;;;27.48;16.58;;;12.60;72.60;;;;;;5022968;28;20042;-84
2021/11/03 09:49:20;;;;;;;28.15;18.65;;;12.70;72.60;;;;;;5019035;28;20114;-83
2021/11/03 09:52:12;;;;;;;26.50;17.05;;;12.60;72.70;;;;;;5037196;28;20029;-84
2021/11/03 09:54:38;;;;;;;26.77;18.27;;;12.70;72.70;;;;;;5034767;28;20572;-84
2021/11/03 09:57:42;;;;;;;30.05;17.45;;;12.70;72.80;;;;;;5036548;28;20491;-84
2021/11/03 10:00:12;;;;;;;27.50;18.17;;;12.70;72.70;;;;;;5036742;28;20025;-85
2021/11/03 10:02:58;;;;;;;27.23;18.80;;;12.70;72.50;;;;;;5036111;28;20496;-85
2021/11/03 10:06:13;;;;;;;28.80;18.45;;;12.70;72.60;;;;;;5036620;28;20482;-85
2021/11/03 10:08:42;;;;;;;29.27;18.13;;;12.70;72.60;;;;;;5001073;28;21476;-82
2021/11/03 10:11:32;;;;;;;26.90;17.60;;;12.70;72.60;;;;;;5000010;28;20465;-85
2021/11/03 10:14:00;;;;;;;32.15;17.88;;;12.70;72.50;;;;;;5026129;28;20132;-84
2021/11/03 10:16:39;;;;;;;26.42;17.25;;;12.80;72.50;;;;;;5038791;28;20041;-85
2021/11/03 10:19:09;;;;;;;27.85;16.70;;;12.80;72.50;;;;;;5036865;28;20423;-85
2021/11/03 10:21:50;;;;;;;28.63;18.40;;;12.80;72.40;;;;;;5036014;28;20042;-85
2021/11/03 10:24:17;;;;;;;25.15;16.27;;;12.80;72.50;;;;;;5036711;28;20044;-84
2021/11/03 10:26:48;;;;;;;26.63;17.05;;;12.80;72.40;;;;;;5035371;28;20025;-90
2021/11/03 10:29:37;;;;;;;25.80;16.85;;;12.80;72.40;;;;;;5027432;28;20038;-90
2021/11/03 10:32:29;;;;;;;26.38;16.80;;;12.80;72.30;;;;;;5036433;28;20060;-91
2021/11/03 10:35:26;;;;;;;25.88;17.60;;;12.80;72.40;;;;;;5036583;28;20041;-89
2021/11/03 10:38:23;;;;;;;28.60;17.23;;;12.90;72.50;;;;;;5035909;28;20514;-88
2021/11/03 10:41:02;;;;;;;26.83;17.55;;;12.80;72.40;;;;;;5035154;28;20481;-90
2021/11/03 10:43:35;;;;;;;29.83;20.15;;;12.80;72.40;;;;;;5037715;28;20044;-88
2021/11/03 10:46:09;;;;;;;30.60;19.08;;;12.90;72.50;;;;;;5034035;28;20033;-88
2021/11/03 10:48:36;;;;;;;26.85;17.63;;;12.80;72.40;;;;;;5035816;28;20029;-89
2021/11/03 10:51:30;;;;;;;23.92;17.08;;;12.90;72.50;;;;;;5036270;28;20075;-89
2021/11/03 10:54:12;;;;;;;24.95;16.52;;;12.90;72.60;;;;;;5035010;28;20518;-85
2021/11/03 10:56:52;;;;;;;29.20;19.00;;;12.90;72.50;;;;;;5041442;28;20037;-86
2021/11/03 10:59:18;;;;;;;27.92;18.45;;;12.90;72.70;;;;;;5041117;28;20041;-85
2021/11/03 11:01:47;;;;;;;26.88;17.60;;;12.90;72.80;;;;;;5026743;28;20033;-85
2021/11/03 11:04:18;;;;;;;27.70;17.77;;;12.90;72.80;;;;;;5040807;28;20041;-94
2021/11/03 11:07:16;;;;;;;27.63;18.52;;;12.90;72.80;;;;;;5039404;28;20036;-92
2021/11/03 11:10:23;;;;;;;29.38;19.17;;;12.90;72.80;;;;;;5016344;28;20037;-87
2021/11/03 11:12:50;;;;;;;26.75;18.75;;;12.90;72.90;;;;;;5013465;28;20041;-90
2021/11/03 11:15:35;;;;;;;28.60;19.17;;;12.90;72.80;;;;;;5034481;28;20033;-89
2021/11/03 11:18:31;;;;;;;32.47;20.52;;;13.00;73.10;;;;;;5035654;28;20040;-90
2021/11/03 11:21:00;;;;;;;29.45;18.90;;;12.90;73.00;;;;;;5019402;28;20044;-88
2021/11/03 11:23:39;;;;;;;28.15;18.23;;;13.00;73.10;;;;;;5011218;28;20046;-89
2021/11/03 11:26:24;;;;;;;27.48;17.98;;;12.90;73.10;;;;;;5040065;28;20502;-88
2021/11/03 11:29:07;;;;;;;29.40;19.20;;;12.90;73.30;;;;;;5037291;28;20174;-87
2021/11/03 11:32:01;;;;;;;27.63;17.33;;;12.90;73.30;;;;;;5048852;28;20042;-84
2021/11/03 11:34:45;;;;;;;29.98;19.42;;;12.90;73.30;;;;;;5048862;28;20427;-85
2021/11/03 11:37:26;;;;;;;25.35;17.35;;;12.90;73.40;;;;;;5055956;28;20025;-86
2021/11/03 11:40:12;;;;;;;28.42;18.88;;;12.90;73.20;;;;;;5032957;28;20033;-86
2021/11/03 11:42:40;;;;;;;;;;;13.00;73.30;;;;;;5015968;28;20109;-86
2021/11/03 11:45:15;;;;;;;24.40;17.00;;;13.00;73.10;;;;;;5015726;28;19940;-87
2021/11/03 11:47:45;;;;;;;27.05;17.00;;;13.00;73.20;;;;;;5026953;28;20048;-87
2021/11/03 11:51:05;;;;;;;25.52;17.55;;;13.00;73.30;;;;;;5037211;28;20033;-86
2021/11/03 11:53:37;;;;;;;23.73;16.80;;;13.00;73.20;;;;;;4974474;28;20035;-85
2021/11/03 11:56:08;;;;;;;27.17;17.27;;;13.00;73.20;;;;;;4974191;28;20561;-85
2021/11/03 11:58:38;;;;;;;22.90;16.33;;;13.00;73.10;;;;;;4977857;28;20074;-80
2021/11/03 12:01:18;;;;;;;25.52;17.35;;;13.00;73.00;;;;;;5006244;28;20064;-86
2021/11/03 12:03:57;;;;;;;26.02;17.75;;;13.00;73.30;;;;;;5056701;28;20064;-87
2021/11/03 12:06:39;;;;;;;24.52;16.65;;;13.00;73.30;;;;;;5034508;28;20021;-85
2021/11/03 12:09:33;;;;;;;25.65;17.75;;;13.00;73.20;;;;;;5069068;28;20039;-84
2021/11/03 12:12:18;;;;;;;26.10;17.02;;;13.00;73.10;;;;;;5039002;28;20038;-83
2021/11/03 12:14:52;;;;;;;28.27;18.65;;;13.00;72.80;;;;;;5036002;28;20033;-86
2021/11/03 12:17:36;;;;;;;23.50;16.05;;;13.00;72.50;;;;;;5069664;28;20028;-84
2021/11/03 12:20:25;;;;;;;24.92;18.08;;;13.00;72.30;;;;;;5036700;28;20043;-83
2021/11/03 12:22:55;;;;;;;26.48;17.48;;;13.00;72.40;;;;;;5038212;28;20069;-84
2021/11/03 12:25:24;;;;;;;29.50;18.55;;;13.00;72.50;;;;;;5037612;28;20037;-83
2021/11/03 12:28:10;;;;;;;28.75;18.73;;;12.90;72.40;;;;;;5037711;28;20029;-85
2021/11/03 12:31:04;;;;;;;25.55;16.90;;;12.90;72.30;;;;;;5039142;28;20031;-84
2021/11/03 12:34:02;;;;;;;25.10;16.88;;;12.90;72.30;;;;;;5038008;28;20084;-84
2021/11/03 12:36:28;;;;;;;26.52;17.33;;;12.90;72.30;;;;;;5039497;28;20064;-84
2021/11/03 12:38:57;;;;;;;26.73;18.05;;;12.90;72.40;;;;;;5038830;28;21496;-83
2021/11/03 12:41:30;;;;;;;25.98;17.65;;;12.80;72.50;;;;;;5047808;28;20450;-86
2021/11/03 12:44:01;;;;;;;28.27;18.15;;;12.80;72.60;;;;;;5053069;28;20041;-85
2021/11/03 12:46:27;;;;;;;28.63;18.58;;;12.80;72.60;;;;;;5039341;28;20037;-84